sensor_id;sensor_type;location;lat;lon;timestamp;P1;durP1;ratioP1;P2;durP2;ratioP2
67164;SDS011;54093;50.014;19.984;2023-05-21T00:05:55;10.98;;;9.10;;
67164;SDS011;54093;50.014;19.984;2023-05-21T00:15:16;9.93;;;8.63;;
67164;SDS011;54093;50.014;19.984;2023-05-21T00:24:37;11.75;;;9.45;;
67164;SDS011;54093;50.014;19.984;2023-05-21T00:33:58;10.70;;;9.60;;
67164;SDS011;54093;50.014;19.984;2023-05-21T00:43:19;11.90;;;10.45;;
67164;SDS011;54093;50.014;19.984;2023-05-21T00:52:39;12.82;;;9.35;;
67164;SDS011;54093;50.014;19.984;2023-05-21T01:02:02;13.70;;;9.38;;
67164;SDS011;54093;50.014;19.984;2023-05-21T01:11:30;10.80;;;9.70;;
67164;SDS011;54093;50.014;19.984;2023-05-21T01:21:01;10.32;;;9.35;;
67164;SDS011;54093;50.014;19.984;2023-05-21T01:30:22;11.02;;;10.00;;
67164;SDS011;54093;50.014;19.984;2023-05-21T01:39:46;12.57;;;11.23;;
67164;SDS011;54093;50.014;19.984;2023-05-21T01:49:13;10.60;;;9.55;;
67164;SDS011;54093;50.014;19.984;2023-05-21T01:58:35;16.25;;;14.70;;
67164;SDS011;54093;50.014;19.984;2023-05-21T02:07:56;12.88;;;11.27;;
67164;SDS011;54093;50.014;19.984;2023-05-21T02:17:19;18.13;;;12.00;;
67164;SDS011;54093;50.014;19.984;2023-05-21T02:26:41;15.27;;;9.82;;
67164;SDS011;54093;50.014;19.984;2023-05-21T02:36:02;12.50;;;11.20;;
67164;SDS011;54093;50.014;19.984;2023-05-21T02:45:24;13.48;;;10.52;;
67164;SDS011;54093;50.014;19.984;2023-05-21T02:54:45;12.57;;;11.27;;
67164;SDS011;54093;50.014;19.984;2023-05-21T03:04:06;11.85;;;10.95;;
67164;SDS011;54093;50.014;19.984;2023-05-21T03:13:27;15.52;;;13.80;;
67164;SDS011;54093;50.014;19.984;2023-05-21T03:22:48;14.10;;;12.50;;
67164;SDS011;54093;50.014;19.984;2023-05-21T03:32:09;14.45;;;11.23;;
67164;SDS011;54093;50.014;19.984;2023-05-21T03:41:30;11.95;;;10.85;;
67164;SDS011;54093;50.014;19.984;2023-05-21T03:50:50;13.23;;;10.77;;
67164;SDS011;54093;50.014;19.984;2023-05-21T04:00:11;14.85;;;11.07;;
67164;SDS011;54093;50.014;19.984;2023-05-21T04:09:33;15.23;;;13.52;;
67164;SDS011;54093;50.014;19.984;2023-05-21T04:18:54;10.43;;;9.45;;
67164;SDS011;54093;50.014;19.984;2023-05-21T04:28:15;14.90;;;11.93;;
67164;SDS011;54093;50.014;19.984;2023-05-21T04:37:39;12.60;;;11.57;;
67164;SDS011;54093;50.014;19.984;2023-05-21T04:47:05;9.65;;;8.75;;
67164;SDS011;54093;50.014;19.984;2023-05-21T04:56:27;8.20;;;7.47;;
67164;SDS011;54093;50.014;19.984;2023-05-21T05:05:48;9.38;;;6.97;;
67164;SDS011;54093;50.014;19.984;2023-05-21T05:15:11;8.65;;;7.57;;
67164;SDS011;54093;50.014;19.984;2023-05-21T05:24:31;10.85;;;6.38;;
67164;SDS011;54093;50.014;19.984;2023-05-21T05:33:53;6.85;;;6.35;;
67164;SDS011;54093;50.014;19.984;2023-05-21T05:43:14;8.60;;;7.90;;
67164;SDS011;54093;50.014;19.984;2023-05-21T05:52:35;6.25;;;5.70;;
67164;SDS011;54093;50.014;19.984;2023-05-21T06:01:56;5.20;;;4.88;;
67164;SDS011;54093;50.014;19.984;2023-05-21T06:11:17;5.38;;;4.97;;
67164;SDS011;54093;50.014;19.984;2023-05-21T06:20:38;5.32;;;4.82;;
67164;SDS011;54093;50.014;19.984;2023-05-21T06:29:59;5.28;;;4.88;;
67164;SDS011;54093;50.014;19.984;2023-05-21T06:39:20;5.72;;;5.00;;
67164;SDS011;54093;50.014;19.984;2023-05-21T06:48:42;6.45;;;6.05;;
67164;SDS011;54093;50.014;19.984;2023-05-21T06:58:03;4.72;;;4.20;;
67164;SDS011;54093;50.014;19.984;2023-05-21T07:07:24;7.68;;;3.97;;
67164;SDS011;54093;50.014;19.984;2023-05-21T07:16:45;10.85;;;5.18;;
67164;SDS011;54093;50.014;19.984;2023-05-21T07:26:07;5.40;;;4.05;;
67164;SDS011;54093;50.014;19.984;2023-05-21T07:35:29;4.15;;;3.85;;
67164;SDS011;54093;50.014;19.984;2023-05-21T07:44:50;8.95;;;3.85;;
67164;SDS011;54093;50.014;19.984;2023-05-21T07:54:11;5.68;;;3.90;;
67164;SDS011;54093;50.014;19.984;2023-05-21T08:03:32;3.75;;;3.45;;
67164;SDS011;54093;50.014;19.984;2023-05-21T08:12:52;10.20;;;4.05;;
67164;SDS011;54093;50.014;19.984;2023-05-21T08:22:13;3.70;;;3.45;;
67164;SDS011;54093;50.014;19.984;2023-05-21T08:31:34;7.32;;;3.70;;
67164;SDS011;54093;50.014;19.984;2023-05-21T08:40:55;3.40;;;3.20;;
67164;SDS011;54093;50.014;19.984;2023-05-21T08:50:17;3.30;;;3.08;;
67164;SDS011;54093;50.014;19.984;2023-05-21T08:59:38;3.70;;;3.38;;
67164;SDS011;54093;50.014;19.984;2023-05-21T09:09:05;4.82;;;3.38;;
67164;SDS011;54093;50.014;19.984;2023-05-21T09:18:34;6.47;;;3.60;;
67164;SDS011;54093;50.014;19.984;2023-05-21T09:27:54;7.47;;;3.05;;
67164;SDS011;54093;50.014;19.984;2023-05-21T09:37:16;2.92;;;2.72;;
67164;SDS011;54093;50.014;19.984;2023-05-21T09:46:37;2.70;;;2.60;;
67164;SDS011;54093;50.014;19.984;2023-05-21T09:55:59;2.93;;;2.73;;
67164;SDS011;54093;50.014;19.984;2023-05-21T10:05:22;3.95;;;2.97;;
67164;SDS011;54093;50.014;19.984;2023-05-21T10:14:46;3.45;;;3.13;;
67164;SDS011;54093;50.014;19.984;2023-05-21T10:24:10;4.40;;;3.00;;
67164;SDS011;54093;50.014;19.984;2023-05-21T10:33:34;6.97;;;2.30;;
67164;SDS011;54093;50.014;19.984;2023-05-21T11:02:14;5.78;;;2.63;;
67164;SDS011;54093;50.014;19.984;2023-05-21T11:11:39;7.78;;;2.53;;
67164;SDS011;54093;50.014;19.984;2023-05-21T11:21:12;2.45;;;2.35;;
67164;SDS011;54093;50.014;19.984;2023-05-21T11:30:34;2.50;;;2.40;;
67164;SDS011;54093;50.014;19.984;2023-05-21T11:39:56;3.05;;;2.00;;
67164;SDS011;54093;50.014;19.984;2023-05-21T11:49:18;4.57;;;2.90;;
67164;SDS011;54093;50.014;19.984;2023-05-21T11:58:41;7.88;;;2.20;;
67164;SDS011;54093;50.014;19.984;2023-05-21T12:08:02;5.53;;;2.28;;
67164;SDS011;54093;50.014;19.984;2023-05-21T12:26:47;3.53;;;2.45;;
67164;SDS011;54093;50.014;19.984;2023-05-21T12:36:09;7.13;;;2.08;;
67164;SDS011;54093;50.014;19.984;2023-05-21T12:45:41;2.50;;;2.30;;
67164;SDS011;54093;50.014;19.984;2023-05-21T12:55:03;2.10;;;2.00;;
67164;SDS011;54093;50.014;19.984;2023-05-21T13:04:24;2.28;;;2.08;;
67164;SDS011;54093;50.014;19.984;2023-05-21T13:13:45;3.00;;;2.00;;
67164;SDS011;54093;50.014;19.984;2023-05-21T13:23:06;2.85;;;2.10;;
67164;SDS011;54093;50.014;19.984;2023-05-21T13:32:26;2.95;;;2.35;;
67164;SDS011;54093;50.014;19.984;2023-05-21T13:41:47;2.00;;;1.90;;
67164;SDS011;54093;50.014;19.984;2023-05-21T13:51:08;2.25;;;2.13;;
67164;SDS011;54093;50.014;19.984;2023-05-21T14:00:29;7.07;;;2.03;;
67164;SDS011;54093;50.014;19.984;2023-05-21T14:09:50;1.65;;;1.60;;
67164;SDS011;54093;50.014;19.984;2023-05-21T14:19:11;5.32;;;2.10;;
67164;SDS011;54093;50.014;19.984;2023-05-21T14:28:32;3.90;;;2.13;;
67164;SDS011;54093;50.014;19.984;2023-05-21T14:37:55;2.05;;;1.95;;
67164;SDS011;54093;50.014;19.984;2023-05-21T14:47:16;3.35;;;1.88;;
67164;SDS011;54093;50.014;19.984;2023-05-21T14:56:37;1.85;;;1.63;;
67164;SDS011;54093;50.014;19.984;2023-05-21T15:05:58;1.83;;;1.73;;
67164;SDS011;54093;50.014;19.984;2023-05-21T15:15:19;7.03;;;2.13;;
67164;SDS011;54093;50.014;19.984;2023-05-21T15:24:40;3.58;;;2.40;;
67164;SDS011;54093;50.014;19.984;2023-05-21T15:34:02;6.72;;;2.83;;
67164;SDS011;54093;50.014;19.984;2023-05-21T15:43:23;2.92;;;2.30;;
67164;SDS011;54093;50.014;19.984;2023-05-21T15:52:44;2.55;;;2.30;;
67164;SDS011;54093;50.014;19.984;2023-05-21T16:02:06;2.67;;;1.88;;
67164;SDS011;54093;50.014;19.984;2023-05-21T16:11:27;2.25;;;2.15;;
67164;SDS011;54093;50.014;19.984;2023-05-21T16:20:48;2.30;;;2.15;;
67164;SDS011;54093;50.014;19.984;2023-05-21T16:30:09;4.32;;;2.20;;
67164;SDS011;54093;50.014;19.984;2023-05-21T16:39:30;4.15;;;2.00;;
67164;SDS011;54093;50.014;19.984;2023-05-21T16:48:51;2.50;;;2.30;;
67164;SDS011;54093;50.014;19.984;2023-05-21T16:58:12;6.30;;;2.08;;
67164;SDS011;54093;50.014;19.984;2023-05-21T17:07:33;2.13;;;1.90;;
67164;SDS011;54093;50.014;19.984;2023-05-21T17:16:54;6.07;;;1.70;;
67164;SDS011;54093;50.014;19.984;2023-05-21T17:26:15;2.35;;;1.98;;
67164;SDS011;54093;50.014;19.984;2023-05-21T17:35:36;2.35;;;1.88;;
67164;SDS011;54093;50.014;19.984;2023-05-21T17:44:57;4.43;;;1.50;;
67164;SDS011;54093;50.014;19.984;2023-05-21T17:54:18;1.80;;;1.70;;
67164;SDS011;54093;50.014;19.984;2023-05-21T18:03:40;2.80;;;2.05;;
67164;SDS011;54093;50.014;19.984;2023-05-21T18:13:01;2.13;;;2.03;;
67164;SDS011;54093;50.014;19.984;2023-05-21T18:22:22;2.42;;;2.17;;
67164;SDS011;54093;50.014;19.984;2023-05-21T18:31:44;2.05;;;1.92;;
67164;SDS011;54093;50.014;19.984;2023-05-21T18:41:05;2.10;;;2.00;;
67164;SDS011;54093;50.014;19.984;2023-05-21T18:50:27;2.22;;;2.13;;
67164;SDS011;54093;50.014;19.984;2023-05-21T18:59:48;3.08;;;2.10;;
67164;SDS011;54093;50.014;19.984;2023-05-21T19:09:10;3.47;;;2.45;;
67164;SDS011;54093;50.014;19.984;2023-05-21T19:18:33;3.58;;;2.53;;
67164;SDS011;54093;50.014;19.984;2023-05-21T19:27:55;3.25;;;2.50;;
67164;SDS011;54093;50.014;19.984;2023-05-21T19:37:16;2.38;;;2.22;;
67164;SDS011;54093;50.014;19.984;2023-05-21T19:46:37;3.38;;;2.50;;
67164;SDS011;54093;50.014;19.984;2023-05-21T19:55:58;5.18;;;2.10;;
67164;SDS011;54093;50.014;19.984;2023-05-21T20:05:19;2.10;;;2.00;;
67164;SDS011;54093;50.014;19.984;2023-05-21T20:14:40;5.50;;;2.83;;
67164;SDS011;54093;50.014;19.984;2023-05-21T20:24:02;2.35;;;2.13;;
67164;SDS011;54093;50.014;19.984;2023-05-21T20:33:23;6.10;;;2.63;;
67164;SDS011;54093;50.014;19.984;2023-05-21T20:42:47;2.60;;;2.50;;
67164;SDS011;54093;50.014;19.984;2023-05-21T20:52:10;2.92;;;2.72;;
67164;SDS011;54093;50.014;19.984;2023-05-21T21:01:31;4.72;;;2.78;;
67164;SDS011;54093;50.014;19.984;2023-05-21T21:10:52;2.92;;;2.53;;
67164;SDS011;54093;50.014;19.984;2023-05-21T21:20:13;2.50;;;2.30;;
67164;SDS011;54093;50.014;19.984;2023-05-21T21:29:36;3.28;;;3.08;;
67164;SDS011;54093;50.014;19.984;2023-05-21T21:38:57;6.88;;;3.38;;
67164;SDS011;54093;50.014;19.984;2023-05-21T21:48:18;3.38;;;2.63;;
67164;SDS011;54093;50.014;19.984;2023-05-21T21:57:39;8.05;;;2.70;;
67164;SDS011;54093;50.014;19.984;2023-05-21T22:07:00;3.33;;;3.13;;
67164;SDS011;54093;50.014;19.984;2023-05-21T22:16:21;2.80;;;2.60;;
67164;SDS011;54093;50.014;19.984;2023-05-21T22:25:44;3.80;;;2.60;;
67164;SDS011;54093;50.014;19.984;2023-05-21T22:35:06;2.95;;;2.25;;
67164;SDS011;54093;50.014;19.984;2023-05-21T22:44:27;3.70;;;2.63;;
67164;SDS011;54093;50.014;19.984;2023-05-21T22:53:48;2.78;;;2.60;;
67164;SDS011;54093;50.014;19.984;2023-05-21T23:03:09;7.45;;;2.70;;
67164;SDS011;54093;50.014;19.984;2023-05-21T23:12:30;2.85;;;2.63;;
67164;SDS011;54093;50.014;19.984;2023-05-21T23:21:51;2.80;;;2.58;;
67164;SDS011;54093;50.014;19.984;2023-05-21T23:31:12;2.72;;;2.53;;
67164;SDS011;54093;50.014;19.984;2023-05-21T23:40:33;4.00;;;2.80;;
67164;SDS011;54093;50.014;19.984;2023-05-21T23:49:54;6.20;;;3.13;;
67164;SDS011;54093;50.014;19.984;2023-05-21T23:59:15;2.90;;;2.80;;
